createdAt,value
2023-03-26T00:00:27.382Z,59.48
2023-03-26T00:06:16.238Z,63.25
2023-03-26T00:11:40.093Z,61.44
2023-03-26T00:17:04.630Z,60.04
2023-03-26T00:22:29.868Z,59.74
2023-03-26T00:27:55.040Z,63.52
2023-03-26T00:33:19.882Z,61.16
2023-03-26T00:38:45.188Z,59.43
2023-03-26T00:44:10.269Z,62.42
2023-03-26T00:49:34.969Z,62.61
2023-03-26T00:55:00.495Z,60.22
2023-03-26T01:00:35.183Z,60.01
2023-03-26T01:06:14.327Z,63.27
2023-03-26T01:11:38.444Z,60.54
2023-03-26T01:17:04.844Z,59.50
2023-03-26T01:22:29.176Z,61.68
2023-03-26T01:27:57.213Z,62.89
2023-03-26T01:33:47.249Z,61.54
2023-03-26T01:39:20.640Z,61.55
2023-03-26T01:45:09.473Z,61.79
2023-03-26T01:50:33.614Z,62.97
2023-03-26T01:56:12.996Z,63.82
2023-03-26T02:01:45.379Z,64.33
2023-03-26T02:07:21.181Z,64.54
2023-03-26T02:12:45.594Z,64.86
2023-03-26T02:18:13.674Z,64.82
2023-03-26T02:23:38.788Z,64.47
2023-03-26T02:29:03.184Z,64.30
2023-03-26T02:34:28.618Z,63.88
2023-03-26T02:39:53.492Z,63.68
2023-03-26T02:45:23.874Z,63.25
2023-03-26T02:51:10.825Z,63.00
2023-03-26T02:56:40.688Z,62.61
2023-03-26T03:02:24.811Z,62.13
2023-03-26T03:07:50.384Z,61.70
2023-03-26T03:13:15.676Z,61.21
2023-03-26T03:18:40.478Z,60.69
2023-03-26T03:24:05.620Z,60.29
2023-03-26T03:29:36.562Z,60.08
2023-03-26T03:35:20.886Z,59.92
2023-03-26T03:40:48.604Z,59.50
2023-03-26T03:46:14.172Z,61.82
2023-03-26T03:51:44.229Z,63.81
2023-03-26T03:57:19.178Z,61.94
2023-03-26T04:02:59.104Z,61.48
2023-03-26T04:08:24.995Z,61.55
2023-03-26T04:13:52.759Z,61.89
2023-03-26T04:19:33.139Z,62.26
2023-03-26T04:24:57.684Z,62.28
2023-03-26T04:30:28.369Z,62.18
2023-03-26T04:36:03.372Z,62.26
2023-03-26T04:41:30.594Z,62.08
2023-03-26T04:47:01.384Z,61.57
2023-03-26T04:52:39.744Z,61.25
2023-03-26T05:03:23.588Z,62.10
2023-03-26T05:08:47.608Z,63.72
2023-03-26T05:14:25.081Z,62.05
2023-03-26T05:19:52.626Z,61.30
2023-03-26T05:25:17.957Z,61.02
2023-03-26T05:30:43.926Z,60.75
2023-03-26T05:36:13.541Z,60.87
2023-03-26T05:41:39.704Z,61.53
2023-03-26T05:47:04.181Z,61.83
2023-03-26T05:52:29.929Z,61.41
2023-03-26T05:58:15.825Z,61.31
2023-03-26T06:03:49.180Z,61.18
2023-03-26T06:09:17.313Z,60.78
2023-03-26T06:14:46.130Z,60.57
2023-03-26T06:20:16.157Z,60.48
2023-03-26T06:25:46.157Z,60.41
2023-03-26T06:31:22.447Z,60.34
2023-03-26T06:37:09.443Z,59.83
2023-03-26T06:43:07.500Z,59.95
2023-03-26T06:54:25.584Z,63.14
2023-03-26T06:59:53.375Z,61.73
2023-03-26T07:05:36.305Z,60.33
2023-03-26T07:11:21.075Z,59.57
2023-03-26T07:17:03.708Z,60.79
2023-03-26T07:22:52.349Z,62.90
2023-03-26T07:28:42.442Z,59.68
2023-03-26T07:35:08.831Z,62.29
2023-03-26T07:41:23.809Z,61.11
2023-03-26T07:47:27.196Z,59.85
2023-03-26T07:53:11.001Z,62.89
2023-03-26T07:59:10.960Z,59.37
2023-03-26T08:05:00.733Z,61.66
2023-03-26T08:11:08.414Z,60.82
2023-03-26T08:16:51.695Z,59.02
2023-03-26T08:22:26.557Z,61.94
2023-03-26T08:28:35.382Z,60.97
2023-03-26T08:34:00.834Z,58.99
2023-03-26T08:39:25.786Z,62.35
2023-03-26T08:45:03.122Z,59.23
2023-03-26T08:50:39.423Z,59.57
2023-03-26T08:56:37.721Z,62.45
2023-03-26T09:02:21.837Z,58.62
2023-03-26T09:07:51.895Z,58.13
2023-03-26T09:13:57.532Z,60.08
2023-03-26T09:19:34.393Z,61.32
2023-03-26T09:25:09.165Z,62.63
2023-03-26T09:31:02.548Z,59.07
2023-03-26T09:36:34.295Z,58.15
2023-03-26T09:42:18.349Z,58.88
2023-03-26T09:47:54.768Z,60.16
2023-03-26T09:53:25.224Z,62.32
2023-03-26T09:59:33.675Z,62.92
2023-03-26T10:05:05.371Z,60.14
2023-03-26T10:10:38.258Z,59.16
2023-03-26T10:16:44.970Z,62.36
2023-03-26T10:22:16.638Z,60.20
2023-03-26T10:28:11.272Z,58.43
2023-03-26T10:33:52.769Z,61.46
2023-03-26T10:39:37.580Z,60.82
2023-03-26T10:45:25.383Z,58.05
2023-03-26T10:51:17.198Z,60.21
2023-03-26T10:56:51.058Z,59.46
2023-03-26T11:02:30.804Z,59.05
2023-03-26T11:08:15.721Z,58.48
2023-03-26T11:13:53.967Z,56.29
2023-03-26T11:19:42.813Z,56.18
2023-03-26T11:25:28.142Z,55.32
2023-03-26T11:31:02.496Z,55.50
2023-03-26T11:36:38.330Z,53.82
2023-03-26T11:42:14.711Z,54.15
2023-03-26T11:47:55.680Z,55.53
2023-03-26T11:53:22.746Z,55.13
2023-03-26T11:59:02.963Z,54.23
2023-03-26T12:04:40.859Z,52.26
2023-03-26T12:10:20.942Z,51.27
2023-03-26T12:15:45.215Z,50.00
2023-03-26T12:21:20.031Z,48.45
2023-03-26T12:26:49.325Z,49.43
2023-03-26T12:32:15.326Z,48.17
2023-03-26T12:37:43.728Z,47.73
2023-03-26T12:44:46.872Z,47.46
2023-03-26T12:49:24.039Z,45.67
2023-03-26T12:55:16.247Z,46.62
2023-03-26T13:00:57.888Z,47.48
2023-03-26T13:07:00.419Z,46.95
2023-03-26T13:12:53.655Z,47.00
2023-03-26T13:18:30.216Z,48.15
2023-03-26T13:24:18.833Z,48.47
2023-03-26T13:30:02.226Z,48.78
2023-03-26T13:35:37.022Z,48.36
2023-03-26T13:41:06.958Z,45.86
2023-03-26T13:46:43.695Z,46.77
2023-03-26T13:52:15.916Z,47.03
2023-03-26T13:57:46.316Z,47.45
2023-03-26T14:03:21.092Z,47.73
2023-03-26T14:08:55.185Z,47.10
2023-03-26T14:14:44.565Z,47.32
2023-03-26T14:20:32.918Z,48.03
2023-03-26T14:26:27.163Z,47.89
2023-03-26T14:32:04.732Z,48.11
2023-03-26T14:37:29.050Z,48.73
2023-03-26T14:43:38.812Z,48.63
2023-03-26T14:49:24.360Z,49.52
2023-03-26T14:54:52.341Z,50.07
2023-03-26T15:00:45.289Z,49.99
2023-03-26T15:06:47.469Z,50.58
2023-03-26T15:12:24.919Z,51.51
2023-03-26T15:17:57.592Z,51.66
2023-03-26T15:23:30.997Z,51.72
2023-03-26T15:28:59.537Z,52.34
2023-03-26T15:35:03.047Z,52.95
2023-03-26T15:40:43.485Z,53.30
2023-03-26T15:46:10.602Z,53.24
2023-03-26T15:51:59.123Z,53.76
2023-03-26T15:57:41.268Z,53.84
2023-03-26T16:03:11.265Z,54.21
2023-03-26T16:09:08.471Z,54.01
2023-03-26T16:14:35.824Z,53.90
2023-03-26T16:20:21.092Z,54.14
2023-03-26T16:26:19.974Z,54.45
2023-03-26T16:32:06.057Z,54.81
2023-03-26T16:37:36.700Z,55.12
2023-03-26T16:43:24.848Z,55.40
2023-03-26T16:48:58.335Z,55.56
2023-03-26T16:54:36.748Z,55.90
2023-03-26T17:00:29.527Z,56.29
2023-03-26T17:06:02.518Z,57.28
2023-03-26T17:11:47.694Z,59.39
2023-03-26T17:17:41.290Z,60.70
2023-03-26T17:23:09.781Z,61.87
2023-03-26T17:29:08.315Z,62.38
2023-03-26T17:34:38.820Z,57.66
2023-03-26T17:40:06.662Z,59.39
2023-03-26T17:45:35.589Z,62.14
2023-03-26T17:51:34.493Z,63.47
2023-03-26T17:57:05.556Z,60.96
2023-03-26T18:02:39.706Z,56.07
2023-03-26T18:08:25.261Z,56.49
2023-03-26T18:14:24.602Z,60.82
2023-03-26T18:20:02.860Z,63.25
2023-03-26T18:25:32.704Z,59.72
2023-03-26T18:31:09.142Z,57.96
2023-03-26T18:36:33.526Z,60.50
2023-03-26T18:41:58.798Z,64.15
2023-03-26T18:47:23.366Z,62.88
2023-03-26T18:52:52.874Z,61.19
2023-03-26T18:58:28.293Z,56.38
2023-03-26T19:03:54.656Z,56.68
2023-03-26T19:09:31.135Z,59.64
2023-03-26T19:15:13.804Z,64.17
2023-03-26T19:20:45.711Z,64.19
2023-03-26T19:26:11.865Z,59.03
2023-03-26T19:31:40.636Z,59.25
2023-03-26T19:37:30.126Z,63.77
2023-03-26T19:42:54.556Z,61.76
2023-03-26T19:48:45.929Z,59.30
2023-03-26T19:54:16.817Z,58.72
2023-03-26T19:59:41.352Z,60.44
2023-03-26T20:05:10.659Z,65.81
2023-03-26T20:10:35.360Z,63.19
2023-03-26T20:16:13.566Z,60.69
2023-03-26T20:21:38.527Z,59.43
2023-03-26T20:27:02.717Z,63.72
2023-03-26T20:32:27.625Z,62.72
2023-03-26T20:37:53.649Z,60.39
2023-03-26T20:43:18.832Z,58.74
2023-03-26T20:48:43.359Z,61.03
2023-03-26T20:54:08.380Z,65.67
2023-03-26T20:59:32.798Z,63.29
2023-03-26T21:04:57.639Z,61.52
2023-03-26T21:10:23.200Z,60.97
2023-03-26T21:15:47.877Z,60.74
2023-03-26T21:21:56.477Z,60.55
2023-03-26T21:27:20.370Z,60.54
2023-03-26T21:32:45.733Z,60.40
2023-03-26T21:38:10.301Z,60.12
2023-03-26T21:43:34.854Z,60.19
2023-03-26T21:48:59.780Z,60.36
2023-03-26T21:54:29.087Z,60.37
2023-03-26T22:00:07.825Z,60.37
2023-03-26T22:05:38.576Z,60.37
2023-03-26T22:11:02.554Z,60.22
2023-03-26T22:16:26.997Z,60.15
2023-03-26T22:21:56.358Z,60.10
2023-03-26T22:27:24.932Z,54.72
2023-03-26T22:32:53.787Z,53.48
2023-03-26T22:38:18.272Z,56.53
2023-03-26T22:43:42.873Z,60.45
2023-03-26T22:49:08.128Z,69.21
2023-03-26T22:54:33.591Z,67.77
2023-03-26T23:00:12.913Z,65.89
2023-03-26T23:05:36.938Z,63.30
2023-03-26T23:11:02.293Z,61.20
2023-03-26T23:16:26.882Z,60.53
2023-03-26T23:21:51.295Z,60.51
2023-03-26T23:27:15.744Z,60.89
2023-03-26T23:32:47.494Z,60.95
2023-03-26T23:38:13.425Z,60.28
2023-03-26T23:43:39.950Z,54.58
2023-03-26T23:49:18.402Z,51.95
2023-03-26T23:54:43.464Z,53.67
